LFYH weather

CLOSED Broyes-lès-Pesmes Air Base
Broye-Aubigney-Montseugny, Franche-Comté, France

Public forecast

Using degrees Celsius for public forecast. Weather courtesy of forecast.io.

METAR (pilot weather report)

Closest report is Dijon-Bourgogne Airport, 17.7 nm (32.7 km) WSW. Retrieved 2019/09/24 07:30 UTC (10 minutes ago):

LFSD 240730Z AUTO 00000KT CAVOK 11/11 Q1014

TAF (pilot weather forecast)

Forecast is more than 12 hours old.

Closest forecast is Dijon-Bourgogne Airport, 17.7 nm (32.7 km) WSW. Retrieved 2015/06/01 00:11 UTC (4 years ago):

TAF LFSD 010600Z 0100/0124 CNL